createdAt,value
2018-07-11T00:01:59.655Z,99985.00
2018-07-11T00:04:27.191Z,99986.00
2018-07-11T00:06:54.730Z,99979.00
2018-07-11T00:09:22.256Z,99974.00
2018-07-11T00:11:49.775Z,99977.00
2018-07-11T00:14:17.316Z,99964.00
2018-07-11T00:16:50.732Z,99973.00
2018-07-11T00:19:18.269Z,99963.00
2018-07-11T00:21:45.807Z,99958.00
2018-07-11T00:24:13.345Z,99957.00
2018-07-11T00:26:40.887Z,99943.00
2018-07-11T00:29:08.410Z,99956.00
2018-07-11T00:31:35.963Z,99958.00
2018-07-11T00:34:03.495Z,99958.00
2018-07-11T00:36:31.048Z,99949.00
2018-07-11T00:38:58.584Z,99949.00
2018-07-11T00:41:26.141Z,99947.00
2018-07-11T00:43:53.670Z,99945.00
2018-07-11T00:46:21.199Z,99949.00
2018-07-11T00:48:48.777Z,99952.00
2018-07-11T00:51:16.316Z,99939.00
2018-07-11T00:53:43.864Z,99943.00
2018-07-11T00:56:11.415Z,99940.00
2018-07-11T00:58:50.582Z,99941.00
2018-07-11T01:01:19.441Z,99929.00
2018-07-11T01:03:54.051Z,99936.00
2018-07-11T01:06:21.602Z,99934.00
2018-07-11T01:08:55.187Z,99942.00
2018-07-11T01:11:22.802Z,99932.00
2018-07-11T01:13:50.418Z,99941.00
2018-07-11T01:16:18.935Z,99947.00
2018-07-11T01:19:02.808Z,99943.00
2018-07-11T01:21:31.191Z,99939.00
2018-07-11T01:23:58.767Z,99929.00
2018-07-11T01:26:28.457Z,99941.00
2018-07-11T01:28:56.070Z,99943.00
2018-07-11T01:31:24.221Z,99940.00
2018-07-11T01:33:51.823Z,99934.00
2018-07-11T01:36:19.354Z,99924.00
2018-07-11T01:38:47.047Z,99931.00
2018-07-11T01:41:14.755Z,99932.00
2018-07-11T01:43:42.820Z,99940.00
2018-07-11T01:46:10.353Z,99943.00
2018-07-11T01:52:06.785Z,99948.00
2018-07-11T01:54:34.401Z,99940.00
2018-07-11T01:57:02.207Z,99941.00
2018-07-11T01:59:35.239Z,99956.00
2018-07-11T02:02:03.186Z,99956.00
2018-07-11T02:04:32.009Z,99951.00
2018-07-11T02:06:59.861Z,99959.00
2018-07-11T02:09:27.455Z,99943.00
2018-07-11T02:11:55.013Z,99952.00
2018-07-11T02:14:22.781Z,99950.00
2018-07-11T02:16:50.361Z,99955.00
2018-07-11T02:19:19.621Z,99951.00
2018-07-11T02:21:48.015Z,99950.00
2018-07-11T02:24:15.667Z,99955.00
2018-07-11T02:26:43.229Z,99946.00
2018-07-11T02:29:11.050Z,99948.00
2018-07-11T02:31:38.621Z,99959.00
2018-07-11T02:34:06.205Z,99951.00
2018-07-11T02:36:33.776Z,99944.00
2018-07-11T02:39:01.638Z,99935.00
2018-07-11T02:41:29.196Z,99935.00
2018-07-11T02:43:56.793Z,99950.00
2018-07-11T02:46:30.117Z,99940.00
2018-07-11T02:48:57.704Z,99941.00
2018-07-11T02:51:25.265Z,99943.00
2018-07-11T02:53:52.845Z,99945.00
2018-07-11T02:56:20.404Z,99942.00
2018-07-11T02:58:48.023Z,99938.00
2018-07-11T03:01:15.991Z,99936.00
2018-07-11T03:03:43.915Z,99938.00
2018-07-11T03:06:11.845Z,99944.00
2018-07-11T03:08:39.742Z,99938.00
2018-07-11T03:11:07.644Z,99936.00
2018-07-11T03:13:35.563Z,99942.00
2018-07-11T03:16:03.407Z,99943.00
2018-07-11T03:18:31.490Z,99950.00
2018-07-11T03:20:59.343Z,99942.00
2018-07-11T03:23:27.199Z,99953.00
2018-07-11T03:25:55.167Z,99946.00
2018-07-11T03:28:23.006Z,99943.00
2018-07-11T03:30:50.803Z,99942.00
2018-07-11T03:33:18.633Z,99943.00
2018-07-11T03:35:46.570Z,99953.00
2018-07-11T03:38:14.454Z,99947.00
2018-07-11T03:40:42.369Z,99934.00
2018-07-11T03:43:10.261Z,99941.00
2018-07-11T03:45:38.128Z,99935.00
2018-07-11T03:48:05.992Z,99931.00
2018-07-11T03:50:33.894Z,99931.00
2018-07-11T03:53:01.769Z,99924.00
2018-07-11T03:55:29.707Z,99934.00
2018-07-11T03:57:57.589Z,99933.00
2018-07-11T04:00:25.785Z,99932.00
2018-07-11T04:02:55.094Z,99937.00
2018-07-11T04:05:23.202Z,99941.00
2018-07-11T04:07:51.187Z,99951.00
2018-07-11T04:10:19.068Z,99937.00
2018-07-11T04:12:49.962Z,99939.00
2018-07-11T04:15:17.839Z,99936.00
2018-07-11T04:17:45.617Z,99939.00
2018-07-11T04:20:13.536Z,99941.00
2018-07-11T04:22:41.362Z,99944.00
2018-07-11T04:25:09.253Z,99943.00
2018-07-11T04:27:37.143Z,99946.00
2018-07-11T04:30:05.087Z,99938.00
2018-07-11T04:32:32.910Z,99938.00
2018-07-11T04:35:00.846Z,99942.00
2018-07-11T04:37:28.723Z,99935.00
2018-07-11T04:39:56.568Z,99938.00
2018-07-11T04:42:24.511Z,99950.00
2018-07-11T04:44:52.369Z,99943.00
2018-07-11T04:47:20.250Z,99939.00
2018-07-11T04:49:48.078Z,99933.00
2018-07-11T04:52:16.560Z,99944.00
2018-07-11T04:54:44.433Z,99938.00
2018-07-11T04:57:12.341Z,99933.00
2018-07-11T04:59:40.246Z,99940.00
2018-07-11T05:02:08.099Z,99937.00
2018-07-11T05:04:35.941Z,99947.00
2018-07-11T05:07:03.839Z,99946.00
2018-07-11T05:09:31.701Z,99949.00
2018-07-11T05:11:59.505Z,99945.00
2018-07-11T05:14:27.385Z,99951.00
2018-07-11T05:16:55.237Z,99942.00
2018-07-11T05:19:23.123Z,99949.00
2018-07-11T05:21:51.210Z,99947.00
2018-07-11T05:24:19.104Z,99957.00
2018-07-11T05:26:46.918Z,99949.00
2018-07-11T05:29:14.809Z,99954.00
2018-07-11T05:31:42.690Z,99955.00
2018-07-11T05:34:10.518Z,99958.00
2018-07-11T05:36:38.401Z,99965.00
2018-07-11T05:39:06.329Z,99957.00
2018-07-11T05:41:34.233Z,99963.00
2018-07-11T05:44:02.052Z,99958.00
2018-07-11T05:46:29.964Z,99957.00
2018-07-11T05:48:57.791Z,99953.00
2018-07-11T05:51:25.646Z,99961.00
2018-07-11T05:53:53.550Z,99966.00
2018-07-11T05:56:21.471Z,99963.00
2018-07-11T05:58:49.327Z,99970.00
2018-07-11T06:01:17.197Z,99961.00
2018-07-11T06:03:45.076Z,99965.00
2018-07-11T06:06:12.979Z,99957.00
2018-07-11T06:08:40.794Z,99960.00
2018-07-11T06:11:17.570Z,99963.00
2018-07-11T06:13:45.471Z,99948.00
2018-07-11T06:16:13.259Z,99943.00
2018-07-11T06:18:41.142Z,99943.00
2018-07-11T06:21:09.060Z,99946.00
2018-07-11T06:23:36.948Z,99950.00
2018-07-11T06:26:05.409Z,99955.00
2018-07-11T06:28:33.270Z,99954.00
2018-07-11T06:31:01.563Z,99951.00
2018-07-11T06:33:29.489Z,99957.00
2018-07-11T06:35:57.380Z,99954.00
2018-07-11T06:38:25.334Z,99964.00
2018-07-11T06:40:53.298Z,99975.00
2018-07-11T06:43:21.186Z,99972.00
2018-07-11T06:45:49.023Z,99979.00
2018-07-11T06:48:16.902Z,99979.00
2018-07-11T06:50:44.833Z,99977.00
2018-07-11T06:53:12.710Z,99976.00
2018-07-11T06:55:40.609Z,99983.00
2018-07-11T06:58:08.572Z,99988.00
2018-07-11T07:00:36.447Z,99992.00
2018-07-11T07:03:04.362Z,99990.00
2018-07-11T07:05:32.315Z,99993.00
2018-07-11T07:08:00.243Z,99988.00
2018-07-11T07:10:28.118Z,99952.00
2018-07-11T07:12:56.150Z,99952.00
2018-07-11T07:15:23.972Z,99970.00
2018-07-11T07:17:51.898Z,99966.00
2018-07-11T07:20:19.775Z,99982.00
2018-07-11T07:22:47.708Z,99978.00
2018-07-11T07:25:15.550Z,99995.00
2018-07-11T07:27:43.330Z,99999.00
2018-07-11T07:30:11.090Z,99992.00
2018-07-11T07:32:38.906Z,99995.00
2018-07-11T07:35:06.758Z,99977.00
2018-07-11T07:37:34.633Z,99995.00
2018-07-11T07:40:02.453Z,99991.00
2018-07-11T07:42:30.222Z,100004.00
2018-07-11T07:44:58.076Z,100010.00
2018-07-11T07:47:31.768Z,99999.00
2018-07-11T07:49:59.711Z,99987.00
2018-07-11T07:52:27.654Z,99983.00
2018-07-11T07:54:55.476Z,99978.00
2018-07-11T07:57:23.241Z,99970.00
2018-07-11T07:59:52.137Z,99983.00
2018-07-11T08:02:20.315Z,99984.00
2018-07-11T08:04:48.864Z,99984.00
2018-07-11T08:07:16.748Z,99979.00
2018-07-11T08:09:44.619Z,99973.00
2018-07-11T08:12:12.639Z,99996.00
2018-07-11T08:14:40.429Z,99992.00
2018-07-11T08:17:08.255Z,99998.00
2018-07-11T08:19:36.058Z,100002.00
2018-07-11T08:22:21.554Z,100002.00
2018-07-11T08:25:06.867Z,99998.00
2018-07-11T08:27:59.934Z,99990.00
2018-07-11T08:30:45.784Z,99995.00
2018-07-11T08:37:41.240Z,99990.00
2018-07-11T08:42:38.566Z,99992.00
2018-07-11T08:45:35.898Z,99975.00
2018-07-11T08:48:16.827Z,99980.00
2018-07-11T08:55:10.592Z,99991.00
2018-07-11T08:58:00.635Z,99978.00
2018-07-11T09:00:48.523Z,99975.00
2018-07-11T09:04:31.800Z,99979.00
2018-07-11T09:08:19.902Z,99958.00
2018-07-11T09:14:13.663Z,99967.00
2018-07-11T09:17:00.281Z,99979.00
2018-07-11T09:20:48.762Z,99968.00
2018-07-11T09:23:33.473Z,99966.00
2018-07-11T09:26:01.245Z,99973.00
2018-07-11T09:28:29.088Z,99967.00
2018-07-11T09:30:56.885Z,99981.00
2018-07-11T09:33:24.659Z,99972.00
2018-07-11T09:35:52.507Z,99976.00
2018-07-11T09:38:20.331Z,99989.00
2018-07-11T09:40:48.444Z,99979.00
2018-07-11T09:43:16.279Z,99968.00
2018-07-11T09:45:44.035Z,99969.00
2018-07-11T09:48:11.769Z,99972.00
2018-07-11T09:50:39.586Z,99973.00
2018-07-11T09:53:07.451Z,99976.00
2018-07-11T09:55:35.320Z,99981.00
2018-07-11T09:58:04.114Z,99982.00
2018-07-11T10:00:37.785Z,99984.00
2018-07-11T10:03:06.315Z,99995.00
2018-07-11T10:05:34.201Z,99991.00
2018-07-11T10:08:05.806Z,99990.00
2018-07-11T10:10:33.781Z,99981.00
2018-07-11T10:13:01.679Z,99975.00
2018-07-11T10:15:29.398Z,99979.00
2018-07-11T10:17:57.333Z,99981.00
2018-07-11T10:20:25.191Z,99978.00
2018-07-11T10:22:53.067Z,99973.00
2018-07-11T10:25:21.009Z,99975.00
2018-07-11T10:28:05.039Z,99979.00
2018-07-11T10:30:33.617Z,99976.00
2018-07-11T10:33:01.423Z,99979.00
2018-07-11T10:35:29.320Z,99968.00
2018-07-11T10:37:57.421Z,99974.00
2018-07-11T10:40:25.578Z,99958.00
2018-07-11T10:42:53.375Z,99962.00
2018-07-11T10:45:21.219Z,99957.00
2018-07-11T10:47:49.067Z,99959.00
2018-07-11T10:50:16.938Z,99957.00
2018-07-11T10:52:44.729Z,99944.00
2018-07-11T10:55:12.586Z,99953.00
2018-07-11T10:57:40.453Z,99960.00
2018-07-11T11:00:08.215Z,99944.00
2018-07-11T11:02:36.104Z,99957.00
2018-07-11T11:05:03.987Z,99958.00
2018-07-11T11:07:31.873Z,99957.00
2018-07-11T11:09:59.685Z,99951.00
2018-07-11T11:12:27.502Z,99958.00
2018-07-11T11:14:55.426Z,99953.00
2018-07-11T11:17:23.309Z,99958.00
2018-07-11T11:19:51.201Z,99948.00
2018-07-11T11:22:19.113Z,99951.00
2018-07-11T11:24:47.003Z,99941.00
2018-07-11T11:27:14.909Z,99948.00
2018-07-11T11:29:42.925Z,99948.00
2018-07-11T11:32:10.830Z,99951.00
2018-07-11T11:34:38.679Z,99947.00
2018-07-11T11:37:06.504Z,99948.00
2018-07-11T11:39:34.395Z,99946.00
2018-07-11T11:42:02.433Z,99941.00
2018-07-11T11:44:30.228Z,99945.00
2018-07-11T11:47:01.046Z,99936.00
2018-07-11T11:49:29.547Z,99935.00
2018-07-11T11:51:57.458Z,99935.00
2018-07-11T11:54:25.375Z,99938.00
2018-07-11T11:56:53.389Z,99932.00
2018-07-11T11:59:21.298Z,99931.00
2018-07-11T12:01:49.172Z,99926.00
2018-07-11T12:04:17.241Z,99935.00
2018-07-11T12:06:45.042Z,99926.00
2018-07-11T12:09:12.858Z,99925.00
2018-07-11T12:11:40.621Z,99919.00
2018-07-11T12:14:08.484Z,99931.00
2018-07-11T12:16:36.359Z,99928.00
2018-07-11T12:19:04.271Z,99929.00
2018-07-11T12:21:32.180Z,99934.00
2018-07-11T12:24:00.059Z,99923.00
2018-07-11T12:26:28.002Z,99924.00
2018-07-11T12:28:55.934Z,99914.00
2018-07-11T12:31:23.774Z,99915.00
2018-07-11T12:33:51.687Z,99919.00
2018-07-11T12:36:19.507Z,99918.00
2018-07-11T12:38:52.701Z,99924.00
2018-07-11T12:41:21.011Z,99928.00
2018-07-11T12:43:48.889Z,99916.00
2018-07-11T12:46:16.835Z,99919.00
2018-07-11T12:48:50.421Z,99924.00
2018-07-11T12:51:18.178Z,99921.00
2018-07-11T12:53:45.998Z,99919.00
2018-07-11T12:56:13.878Z,99918.00
2018-07-11T12:58:41.662Z,99914.00
2018-07-11T13:01:09.567Z,99923.00
2018-07-11T13:03:37.352Z,99919.00
2018-07-11T13:06:05.403Z,99916.00
2018-07-11T13:08:33.167Z,99913.00
2018-07-11T13:11:00.938Z,99906.00
2018-07-11T13:13:28.751Z,99907.00
2018-07-11T13:15:56.663Z,99913.00
2018-07-11T13:18:24.467Z,99907.00
2018-07-11T13:20:52.347Z,99906.00
2018-07-11T13:23:20.243Z,99902.00
2018-07-11T13:25:48.145Z,99909.00
2018-07-11T13:28:15.977Z,99901.00
2018-07-11T13:30:43.904Z,99896.00
2018-07-11T13:33:11.686Z,99904.00
2018-07-11T13:35:39.717Z,99904.00
2018-07-11T13:38:10.677Z,99894.00
2018-07-11T13:40:38.462Z,99899.00
2018-07-11T13:43:06.683Z,99894.00
2018-07-11T13:45:34.489Z,99896.00
2018-07-11T13:48:03.081Z,99894.00
2018-07-11T13:50:33.073Z,99893.00
2018-07-11T13:53:01.242Z,99896.00
2018-07-11T13:55:29.562Z,99892.00
2018-07-11T13:57:58.792Z,99888.00
2018-07-11T14:00:26.761Z,99885.00
2018-07-11T14:02:54.645Z,99883.00
2018-07-11T14:05:22.535Z,99888.00
2018-07-11T14:07:50.356Z,99890.00
2018-07-11T14:10:18.605Z,99901.00
2018-07-11T14:12:46.461Z,99907.00
2018-07-11T14:15:14.362Z,99904.00
2018-07-11T14:17:42.411Z,99916.00
2018-07-11T14:20:10.258Z,99914.00
2018-07-11T14:22:38.714Z,99911.00
2018-07-11T14:25:06.679Z,99929.00
2018-07-11T14:27:43.897Z,99942.00
2018-07-11T14:30:22.533Z,99937.00
2018-07-11T14:32:51.757Z,99945.00
2018-07-11T14:35:19.702Z,99952.00
2018-07-11T14:37:48.613Z,99964.00
2018-07-11T14:40:16.423Z,99963.00
2018-07-11T14:42:52.550Z,99958.00
2018-07-11T14:45:23.913Z,99968.00
2018-07-11T14:48:06.352Z,99982.00
2018-07-11T14:50:35.533Z,99964.00
2018-07-11T14:53:15.974Z,99968.00
2018-07-11T14:55:43.980Z,99973.00
2018-07-11T14:58:11.889Z,99968.00
2018-07-11T15:00:57.922Z,99974.00
2018-07-11T15:03:33.018Z,99967.00
2018-07-11T15:06:06.646Z,99963.00
2018-07-11T15:08:34.648Z,99949.00
2018-07-11T15:11:02.459Z,99964.00
2018-07-11T15:13:47.383Z,99961.00
2018-07-11T15:16:19.847Z,99966.00
2018-07-11T15:18:50.554Z,99964.00
2018-07-11T15:21:18.524Z,99958.00
2018-07-11T15:23:52.286Z,99964.00
2018-07-11T15:26:20.141Z,99957.00
2018-07-11T15:28:48.066Z,99961.00
2018-07-11T15:31:19.806Z,99964.00
2018-07-11T15:34:00.374Z,99967.00
2018-07-11T15:36:28.273Z,99960.00
2018-07-11T15:38:56.187Z,99969.00
2018-07-11T15:41:23.950Z,99963.00
2018-07-11T15:43:52.282Z,99957.00
2018-07-11T15:46:20.938Z,99962.00
2018-07-11T15:48:49.248Z,99967.00
2018-07-11T15:51:17.114Z,99957.00
2018-07-11T15:53:45.022Z,99957.00
2018-07-11T15:56:12.903Z,99959.00
2018-07-11T15:58:44.568Z,99954.00
2018-07-11T16:01:10.856Z,99954.00
2018-07-11T16:03:46.338Z,99954.00
2018-07-11T16:06:15.537Z,99955.00
2018-07-11T16:08:48.935Z,99948.00
2018-07-11T16:11:16.908Z,99948.00
2018-07-11T16:13:44.812Z,99942.00
2018-07-11T16:16:12.744Z,99947.00
2018-07-11T16:18:40.623Z,99949.00
2018-07-11T16:21:08.477Z,99957.00
2018-07-11T16:23:36.517Z,99953.00
2018-07-11T16:26:04.302Z,99967.00
2018-07-11T16:28:32.465Z,99961.00
2018-07-11T16:31:00.406Z,99961.00
2018-07-11T16:33:28.210Z,99964.00
2018-07-11T16:35:58.203Z,99967.00
2018-07-11T16:41:26.403Z,99965.00
2018-07-11T16:43:54.329Z,99964.00
2018-07-11T16:46:34.603Z,99960.00
2018-07-11T16:49:02.423Z,99960.00
2018-07-11T16:51:30.451Z,99957.00
2018-07-11T16:53:58.257Z,99960.00
2018-07-11T16:56:26.063Z,99960.00
2018-07-11T16:58:59.149Z,99950.00
2018-07-11T17:01:34.849Z,99949.00
2018-07-11T17:04:06.197Z,99947.00
2018-07-11T17:06:35.473Z,99958.00
2018-07-11T17:09:13.364Z,99957.00
2018-07-11T17:11:41.423Z,99957.00
2018-07-11T17:14:09.641Z,99958.00
2018-07-11T17:16:43.054Z,99955.00
2018-07-11T17:19:23.180Z,99958.00
2018-07-11T17:21:51.106Z,99955.00
2018-07-11T17:24:20.148Z,99958.00
2018-07-11T17:26:49.468Z,99958.00
2018-07-11T17:29:24.823Z,99965.00
2018-07-11T17:32:24.759Z,99968.00
2018-07-11T17:34:52.647Z,99958.00
2018-07-11T17:52:23.960Z,99963.00
2018-07-11T17:55:09.690Z,99962.00
2018-07-11T17:58:03.636Z,99967.00
2018-07-11T18:00:43.233Z,99961.00
2018-07-11T18:03:31.007Z,99962.00
2018-07-11T18:06:04.417Z,99961.00
2018-07-11T18:08:46.757Z,99956.00
2018-07-11T18:11:15.212Z,99961.00
2018-07-11T18:13:51.241Z,99968.00
2018-07-11T18:16:57.994Z,99959.00
2018-07-11T18:21:43.999Z,99963.00
2018-07-11T18:26:35.881Z,99958.00
2018-07-11T18:29:18.358Z,99956.00
2018-07-11T18:34:01.054Z,99955.00
2018-07-11T18:38:50.533Z,99967.00
2018-07-11T18:41:35.733Z,99952.00
2018-07-11T18:44:23.143Z,99963.00
2018-07-11T18:49:13.645Z,99971.00
2018-07-11T18:52:58.558Z,99964.00
2018-07-11T18:55:34.329Z,99967.00
2018-07-11T18:58:56.129Z,99958.00
2018-07-11T19:01:35.766Z,99961.00
2018-07-11T19:04:21.769Z,99956.00
2018-07-11T19:07:00.346Z,99951.00
2018-07-11T19:10:04.010Z,99955.00
2018-07-11T19:12:44.254Z,99957.00
2018-07-11T19:15:15.419Z,99957.00
2018-07-11T19:18:13.807Z,99957.00
2018-07-11T19:20:57.014Z,99956.00
2018-07-11T19:23:34.823Z,99961.00
2018-07-11T19:26:19.898Z,99967.00
2018-07-11T19:29:55.969Z,99967.00
2018-07-11T19:36:17.522Z,99967.00
2018-07-11T19:39:04.344Z,99970.00
2018-07-11T19:41:49.468Z,99963.00
2018-07-11T19:44:32.509Z,99969.00
2018-07-11T19:47:29.597Z,99969.00
2018-07-11T19:50:06.338Z,99964.00
2018-07-11T19:52:50.602Z,99965.00
2018-07-11T19:55:37.188Z,99979.00
2018-07-11T19:58:05.050Z,99977.00
2018-07-11T20:00:32.905Z,99976.00
2018-07-11T20:03:00.828Z,99977.00
2018-07-11T20:05:28.729Z,99978.00
2018-07-11T20:07:56.702Z,99976.00
2018-07-11T20:10:24.574Z,99981.00
2018-07-11T20:12:52.443Z,99976.00
2018-07-11T20:15:20.425Z,99993.00
2018-07-11T20:17:48.298Z,99986.00
2018-07-11T20:20:16.293Z,99990.00
2018-07-11T20:22:44.209Z,99998.00
2018-07-11T20:25:12.109Z,99992.00
2018-07-11T20:27:39.922Z,99987.00
2018-07-11T20:30:07.897Z,99991.00
2018-07-11T20:32:35.746Z,99989.00
2018-07-11T20:35:03.657Z,99990.00
2018-07-11T20:37:31.573Z,99989.00
2018-07-11T20:39:59.425Z,99986.00
2018-07-11T20:42:27.386Z,99990.00
2018-07-11T20:44:55.201Z,99987.00
2018-07-11T20:47:23.052Z,99991.00
2018-07-11T20:49:50.953Z,99980.00
2018-07-11T20:52:18.842Z,99982.00
2018-07-11T20:54:46.702Z,99988.00
2018-07-11T20:57:14.620Z,99981.00
2018-07-11T21:03:07.890Z,99986.00
2018-07-11T21:06:03.422Z,99987.00
2018-07-11T21:09:03.318Z,99995.00
2018-07-11T21:11:58.246Z,99991.00
2018-07-11T21:25:27.170Z,99998.00
2018-07-11T21:27:54.989Z,99998.00
2018-07-11T21:30:22.889Z,99997.00
2018-07-11T21:32:56.632Z,100006.00
2018-07-11T21:35:32.373Z,99997.00
2018-07-11T21:44:01.471Z,100024.00
2018-07-11T21:46:29.399Z,100015.00
2018-07-11T21:48:57.245Z,100015.00
2018-07-11T21:51:41.510Z,100011.00
2018-07-11T21:54:09.344Z,100008.00
2018-07-11T21:56:50.825Z,100008.00
2018-07-11T22:02:20.017Z,100000.00
2018-07-11T22:04:47.935Z,100002.00
2018-07-11T22:07:15.783Z,100004.00
2018-07-11T22:09:43.671Z,99997.00
2018-07-11T22:12:11.608Z,100001.00
2018-07-11T22:14:39.479Z,99994.00
2018-07-11T22:17:25.721Z,100000.00
2018-07-11T22:22:58.921Z,99983.00
2018-07-11T22:25:25.322Z,99977.00
2018-07-11T22:27:51.781Z,99982.00
2018-07-11T22:30:18.278Z,99977.00
2018-07-11T22:32:44.717Z,99969.00
2018-07-11T22:35:11.132Z,99968.00
2018-07-11T22:37:37.563Z,99964.00
2018-07-11T22:40:04.016Z,99967.00
2018-07-11T22:42:30.478Z,99962.00
2018-07-11T22:44:56.862Z,99968.00
2018-07-11T22:47:23.271Z,99957.00
2018-07-11T22:49:55.549Z,99953.00
2018-07-11T22:52:21.985Z,99964.00
2018-07-11T22:54:48.449Z,99967.00
2018-07-11T22:57:14.893Z,99969.00
2018-07-11T22:59:41.294Z,99968.00
2018-07-11T23:02:07.740Z,99959.00
2018-07-11T23:04:34.198Z,99963.00
2018-07-11T23:07:00.917Z,99966.00
2018-07-11T23:09:27.326Z,99976.00
2018-07-11T23:11:53.773Z,99972.00
2018-07-11T23:14:20.242Z,99975.00
2018-07-11T23:16:47.448Z,99976.00
2018-07-11T23:19:13.915Z,99976.00
2018-07-11T23:21:40.782Z,99984.00
2018-07-11T23:24:07.165Z,99983.00
2018-07-11T23:26:33.651Z,99990.00
2018-07-11T23:29:00.100Z,99984.00
2018-07-11T23:31:26.541Z,99980.00
2018-07-11T23:33:52.970Z,99983.00
2018-07-11T23:36:19.366Z,99970.00
2018-07-11T23:38:45.894Z,99965.00
2018-07-11T23:41:12.250Z,99968.00
2018-07-11T23:43:38.673Z,99976.00
2018-07-11T23:46:05.103Z,99963.00
2018-07-11T23:48:31.518Z,99965.00
2018-07-11T23:50:57.919Z,99960.00
2018-07-11T23:53:24.373Z,99951.00
2018-07-11T23:55:50.870Z,99948.00
2018-07-11T23:58:17.281Z,99951.00
